createdAt,value
2018-05-06T00:00:50.872Z,1020.35
2018-05-06T00:01:50.784Z,1020.36
2018-05-06T00:03:43.722Z,1020.35
2018-05-06T00:04:43.637Z,1020.35
2018-05-06T00:06:36.574Z,1020.35
2018-05-06T00:07:36.484Z,1020.35
2018-05-06T00:09:29.424Z,1020.33
2018-05-06T00:10:29.341Z,1020.33
2018-05-06T00:12:22.276Z,1020.31
2018-05-06T00:13:22.187Z,1020.32
2018-05-06T00:15:15.199Z,1020.28
2018-05-06T00:16:15.038Z,1020.29
2018-05-06T00:18:07.981Z,1020.33
2018-05-06T00:19:07.888Z,1020.30
2018-05-06T00:21:00.831Z,1020.28
2018-05-06T00:22:00.743Z,1020.34
2018-05-06T00:23:53.684Z,1020.31
2018-05-06T00:24:53.592Z,1020.33
2018-05-06T00:26:46.536Z,1020.32
2018-05-06T00:27:46.441Z,1020.30
2018-05-06T00:29:39.383Z,1020.33
2018-05-06T00:30:39.294Z,1020.32
2018-05-06T00:32:32.234Z,1020.32
2018-05-06T00:33:32.186Z,1020.32
2018-05-06T00:35:25.086Z,1020.33
2018-05-06T00:36:24.999Z,1020.34
2018-05-06T00:38:17.934Z,1020.34
2018-05-06T00:39:17.852Z,1020.33
2018-05-06T00:41:10.787Z,1020.33
2018-05-06T00:42:10.692Z,1020.27
2018-05-06T00:44:03.578Z,1020.27
2018-05-06T00:45:03.546Z,1020.17
2018-05-06T00:46:56.479Z,1020.18
2018-05-06T00:47:56.397Z,1020.13
2018-05-06T00:49:49.337Z,1020.13
2018-05-06T00:50:49.247Z,1020.14
2018-05-06T00:52:42.190Z,1020.15
2018-05-06T00:53:42.095Z,1020.17
2018-05-06T00:55:35.037Z,1020.16
2018-05-06T00:56:34.952Z,1020.15
2018-05-06T00:58:27.886Z,1020.16
2018-05-06T00:59:27.799Z,1020.15
2018-05-06T01:01:20.781Z,1020.16
2018-05-06T01:02:20.654Z,1020.19
2018-05-06T01:04:13.589Z,1020.19
2018-05-06T01:05:13.500Z,1020.20
2018-05-06T01:07:06.440Z,1020.26
2018-05-06T01:08:06.349Z,1020.23
2018-05-06T01:09:59.285Z,1020.22
2018-05-06T01:10:59.195Z,1020.24
2018-05-06T01:12:52.146Z,1020.25
2018-05-06T01:13:52.053Z,1020.29
2018-05-06T01:15:44.935Z,1020.29
2018-05-06T01:16:44.904Z,1020.31
2018-05-06T01:18:37.842Z,1020.24
2018-05-06T01:19:37.757Z,1020.27
2018-05-06T01:21:30.692Z,1020.26
2018-05-06T01:22:30.606Z,1020.23
2018-05-06T01:24:23.545Z,1020.21
2018-05-06T01:25:23.458Z,1020.21
2018-05-06T01:27:16.398Z,1020.24
2018-05-06T01:28:16.302Z,1020.25
2018-05-06T01:30:09.248Z,1020.25
2018-05-06T01:31:09.157Z,1020.25
2018-05-06T01:33:02.101Z,1020.21
2018-05-06T01:34:02.012Z,1020.26
2018-05-06T01:35:54.943Z,1020.23
2018-05-06T01:36:54.857Z,1020.25
2018-05-06T01:38:47.797Z,1020.25
2018-05-06T01:39:47.708Z,1020.22
2018-05-06T01:41:40.650Z,1020.22
2018-05-06T01:42:40.561Z,1020.27
2018-05-06T01:44:33.500Z,1020.22
2018-05-06T01:45:33.410Z,1020.26
2018-05-06T01:47:26.352Z,1020.24
2018-05-06T01:48:26.258Z,1020.23
2018-05-06T01:50:19.202Z,1020.26
2018-05-06T01:51:19.110Z,1020.24
2018-05-06T01:53:12.055Z,1020.29
2018-05-06T01:54:11.968Z,1020.29
2018-05-06T01:56:04.905Z,1020.35
2018-05-06T01:57:04.822Z,1020.33
2018-05-06T01:58:57.755Z,1020.37
2018-05-06T01:59:57.662Z,1020.38
2018-05-06T02:01:50.605Z,1020.36
2018-05-06T02:02:50.515Z,1020.38
2018-05-06T02:04:43.457Z,1020.42
2018-05-06T02:05:43.371Z,1020.37
2018-05-06T02:07:36.307Z,1020.39
2018-05-06T02:08:36.219Z,1020.36
2018-05-06T02:10:29.162Z,1020.37
2018-05-06T02:11:29.067Z,1020.36
2018-05-06T02:13:22.009Z,1020.35
2018-05-06T02:14:21.918Z,1020.33
2018-05-06T02:16:14.858Z,1020.32
2018-05-06T02:17:14.769Z,1020.33
2018-05-06T02:19:07.720Z,1020.30
2018-05-06T02:20:07.626Z,1020.27
2018-05-06T02:22:00.562Z,1020.28
2018-05-06T02:23:00.473Z,1020.28
2018-05-06T02:24:53.416Z,1020.27
2018-05-06T02:25:53.322Z,1020.30
2018-05-06T02:27:46.270Z,1020.34
2018-05-06T02:28:46.184Z,1020.34
2018-05-06T02:30:39.120Z,1020.26
2018-05-06T02:31:39.033Z,1020.26
2018-05-06T02:33:46.410Z,1020.25
2018-05-06T02:34:36.049Z,1020.24
2018-05-06T02:35:36.292Z,1020.25
2018-05-06T02:36:35.470Z,1020.25
2018-05-06T02:37:36.352Z,1020.22
2018-05-06T02:38:35.591Z,1020.23
2018-05-06T02:39:34.553Z,1020.18
2018-05-06T02:40:34.534Z,1020.18
2018-05-06T02:41:35.074Z,1020.20
2018-05-06T02:42:34.749Z,1020.18
2018-05-06T02:43:32.863Z,1020.18
2018-05-06T02:44:33.118Z,1020.18
2018-05-06T02:45:32.419Z,1020.18
2018-05-06T02:46:34.671Z,1020.16
2018-05-06T02:47:33.558Z,1020.20
2018-05-06T02:48:34.471Z,1020.20
2018-05-06T02:49:34.779Z,1020.19
2018-05-06T02:50:33.943Z,1020.21
2018-05-06T02:51:34.061Z,1020.19
2018-05-06T02:52:33.703Z,1020.22
2018-05-06T02:53:33.084Z,1020.24
2018-05-06T02:54:35.263Z,1020.20
2018-05-06T02:55:33.883Z,1020.21
2018-05-06T02:56:34.864Z,1020.23
2018-05-06T02:57:33.264Z,1020.19
2018-05-06T02:58:35.506Z,1020.20
2018-05-06T02:59:33.206Z,1020.22
2018-05-06T03:00:33.069Z,1020.19
2018-05-06T03:01:32.827Z,1020.21
2018-05-06T03:02:35.587Z,1020.25
2018-05-06T03:03:35.711Z,1020.20
2018-05-06T03:04:33.649Z,1020.21
2018-05-06T03:05:33.211Z,1020.19
2018-05-06T03:06:33.050Z,1020.19
2018-05-06T03:07:31.625Z,1020.20
2018-05-06T03:08:31.081Z,1020.21
2018-05-06T03:09:31.085Z,1020.21
2018-05-06T03:10:31.062Z,1020.20
2018-05-06T03:11:31.054Z,1020.23
2018-05-06T03:12:31.015Z,1020.20
2018-05-06T03:13:30.998Z,1020.20
2018-05-06T03:14:30.911Z,1020.26
2018-05-06T03:15:30.932Z,1020.20
2018-05-06T03:16:30.896Z,1020.20
2018-05-06T03:17:30.957Z,1020.15
2018-05-06T03:18:30.885Z,1020.20
2018-05-06T03:19:30.826Z,1020.21
2018-05-06T03:20:30.816Z,1020.16
2018-05-06T03:21:30.735Z,1020.18
2018-05-06T03:22:30.781Z,1020.18
2018-05-06T03:23:30.745Z,1020.16
2018-05-06T03:24:30.729Z,1020.10
2018-05-06T03:25:30.644Z,1020.11
2018-05-06T03:26:30.675Z,1020.12
2018-05-06T03:27:30.650Z,1020.12
2018-05-06T03:28:30.645Z,1020.12
2018-05-06T03:29:30.592Z,1020.16
2018-05-06T03:30:30.594Z,1020.10
2018-05-06T03:31:30.572Z,1020.10
2018-05-06T03:32:30.507Z,1020.14
2018-05-06T03:33:30.486Z,1020.10
2018-05-06T03:34:30.483Z,1020.11
2018-05-06T03:35:30.430Z,1020.14
2018-05-06T03:36:30.453Z,1020.10
2018-05-06T03:37:30.359Z,1020.15
2018-05-06T03:38:30.405Z,1020.10
2018-05-06T03:39:30.331Z,1020.11
2018-05-06T03:40:30.311Z,1020.08
2018-05-06T03:41:30.314Z,1020.14
2018-05-06T03:42:30.267Z,1020.09
2018-05-06T03:43:30.264Z,1020.10
2018-05-06T03:44:30.238Z,1020.09
2018-05-06T03:45:30.239Z,1020.09
2018-05-06T03:46:30.195Z,1020.07
2018-05-06T03:47:30.136Z,1020.07
2018-05-06T03:48:30.064Z,1020.09
2018-05-06T03:49:30.079Z,1020.09
2018-05-06T03:50:30.071Z,1020.11
2018-05-06T03:51:30.011Z,1020.11
2018-05-06T03:52:29.999Z,1020.09
2018-05-06T03:53:29.993Z,1020.08
2018-05-06T03:54:30.016Z,1020.12
2018-05-06T03:55:29.909Z,1020.11
2018-05-06T03:56:29.929Z,1020.11
2018-05-06T03:57:29.886Z,1020.17
2018-05-06T03:58:29.865Z,1020.12
2018-05-06T03:59:29.826Z,1020.17
2018-05-06T04:00:29.934Z,1020.17
2018-05-06T04:01:29.837Z,1020.15
2018-05-06T04:02:29.749Z,1020.12
2018-05-06T04:03:29.754Z,1020.17
2018-05-06T04:04:29.728Z,1020.17
2018-05-06T04:05:29.765Z,1020.12
2018-05-06T04:06:29.657Z,1020.12
2018-05-06T04:07:29.601Z,1020.14
2018-05-06T04:08:29.668Z,1020.16
2018-05-06T04:09:29.616Z,1020.12
2018-05-06T04:10:29.621Z,1020.14
2018-05-06T04:11:29.560Z,1020.10
2018-05-06T04:12:29.524Z,1020.13
2018-05-06T04:13:29.484Z,1020.11
2018-05-06T04:14:29.452Z,1020.11
2018-05-06T04:15:29.423Z,1020.08
2018-05-06T04:16:29.406Z,1020.10
2018-05-06T04:17:29.367Z,1020.06
2018-05-06T04:18:29.354Z,1020.08
2018-05-06T04:19:29.321Z,1020.10
2018-05-06T04:20:29.348Z,1020.10
2018-05-06T04:21:29.278Z,1020.13
2018-05-06T04:22:29.315Z,1020.11
2018-05-06T04:23:29.301Z,1020.10
2018-05-06T04:24:29.272Z,1020.12
2018-05-06T04:25:29.156Z,1020.10
2018-05-06T04:26:29.188Z,1020.09
2018-05-06T04:27:29.176Z,1020.14
2018-05-06T04:28:29.170Z,1020.11
2018-05-06T04:29:29.119Z,1020.12
2018-05-06T04:30:29.143Z,1020.13
2018-05-06T04:31:29.067Z,1020.14
2018-05-06T04:32:29.028Z,1020.13
2018-05-06T04:33:29.011Z,1020.11
2018-05-06T04:34:28.970Z,1020.11
2018-05-06T04:35:28.964Z,1020.10
2018-05-06T04:36:28.877Z,1020.07
2018-05-06T04:37:28.930Z,1020.12
2018-05-06T04:38:28.883Z,1020.15
2018-05-06T04:39:28.867Z,1020.13
2018-05-06T04:40:28.850Z,1020.11
2018-05-06T04:41:28.838Z,1020.15
2018-05-06T04:42:28.779Z,1020.13
2018-05-06T04:43:28.804Z,1020.14
2018-05-06T04:44:28.766Z,1020.16
2018-05-06T04:45:28.680Z,1020.13
2018-05-06T04:46:28.733Z,1020.18
2018-05-06T04:47:28.621Z,1020.18
2018-05-06T04:48:28.654Z,1020.19
2018-05-06T04:49:28.642Z,1020.18
2018-05-06T04:50:28.571Z,1020.21
2018-05-06T04:51:28.558Z,1020.23
2018-05-06T04:52:28.557Z,1020.17
2018-05-06T04:53:28.482Z,1020.22
2018-05-06T04:54:28.475Z,1020.22
2018-05-06T04:55:28.458Z,1020.21
2018-05-06T04:56:28.505Z,1020.20
2018-05-06T04:57:28.426Z,1020.22
2018-05-06T04:58:28.403Z,1020.24
2018-05-06T04:59:28.399Z,1020.22
2018-05-06T05:00:28.318Z,1020.27
2018-05-06T05:01:28.394Z,1020.28
2018-05-06T05:02:28.265Z,1020.29
2018-05-06T05:03:28.245Z,1020.32
2018-05-06T05:04:28.260Z,1020.32
2018-05-06T05:05:28.182Z,1020.35
2018-05-06T05:06:28.176Z,1020.39
2018-05-06T05:07:28.269Z,1020.39
2018-05-06T05:08:28.120Z,1020.37
2018-05-06T05:09:28.115Z,1020.38
2018-05-06T05:10:28.093Z,1020.36
2018-05-06T05:11:28.101Z,1020.35
2018-05-06T05:12:28.048Z,1020.37
2018-05-06T05:13:28.004Z,1020.34
2018-05-06T05:14:28.012Z,1020.40
2018-05-06T05:15:28.014Z,1020.38
2018-05-06T05:16:27.897Z,1020.40
2018-05-06T05:17:27.919Z,1020.39
2018-05-06T05:18:27.948Z,1020.45
2018-05-06T05:19:27.891Z,1020.43
2018-05-06T05:20:27.835Z,1020.49
2018-05-06T05:21:27.863Z,1020.47
2018-05-06T05:22:27.762Z,1020.46
2018-05-06T05:23:27.741Z,1020.49
2018-05-06T05:24:27.720Z,1020.46
2018-05-06T05:25:27.794Z,1020.49
2018-05-06T05:26:27.681Z,1020.50
2018-05-06T05:27:27.687Z,1020.51
2018-05-06T05:28:27.608Z,1020.53
2018-05-06T05:29:27.591Z,1020.51
2018-05-06T05:30:27.614Z,1020.55
2018-05-06T05:31:27.582Z,1020.50
2018-05-06T05:32:27.513Z,1020.53
2018-05-06T05:33:27.558Z,1020.53
2018-05-06T05:34:27.585Z,1020.52
2018-05-06T05:35:27.416Z,1020.54
2018-05-06T05:36:27.451Z,1020.55
2018-05-06T05:37:27.471Z,1020.54
2018-05-06T05:38:27.405Z,1020.56
2018-05-06T05:39:27.374Z,1020.57
2018-05-06T05:40:27.317Z,1020.56
2018-05-06T05:41:27.373Z,1020.57
2018-05-06T05:42:27.305Z,1020.54
2018-05-06T05:43:27.225Z,1020.58
2018-05-06T05:44:27.307Z,1020.58
2018-05-06T05:45:27.297Z,1020.56
2018-05-06T05:46:27.221Z,1020.56
2018-05-06T05:47:27.190Z,1020.59
2018-05-06T05:48:27.230Z,1020.57
2018-05-06T05:49:27.110Z,1020.58
2018-05-06T05:50:27.136Z,1020.60
2018-05-06T05:51:27.132Z,1020.56
2018-05-06T05:52:27.055Z,1020.57
2018-05-06T05:53:27.000Z,1020.58
2018-05-06T05:54:27.044Z,1020.60
2018-05-06T05:55:26.981Z,1020.56
2018-05-06T05:56:26.953Z,1020.57
2018-05-06T05:57:26.958Z,1020.63
2018-05-06T05:58:26.873Z,1020.60
2018-05-06T05:59:26.937Z,1020.63
2018-05-06T06:00:26.922Z,1020.63
2018-05-06T06:01:26.900Z,1020.61
2018-05-06T06:02:26.832Z,1020.64
2018-05-06T06:03:26.807Z,1020.62
2018-05-06T06:04:26.831Z,1020.68
2018-05-06T06:05:26.744Z,1020.64
2018-05-06T06:06:26.729Z,1020.63
2018-05-06T06:07:26.786Z,1020.66
2018-05-06T06:08:26.666Z,1020.66
2018-05-06T06:09:26.647Z,1020.66
2018-05-06T06:10:26.672Z,1020.61
2018-05-06T06:11:26.669Z,1020.63
2018-05-06T06:12:26.655Z,1020.65
2018-05-06T06:13:26.567Z,1020.66
2018-05-06T06:14:26.567Z,1020.63
2018-05-06T06:15:26.554Z,1020.70
2018-05-06T06:16:26.488Z,1020.67
2018-05-06T06:17:26.479Z,1020.68
2018-05-06T06:18:26.599Z,1020.65
2018-05-06T06:19:26.447Z,1020.69
2018-05-06T06:20:26.414Z,1020.70
2018-05-06T06:21:26.332Z,1020.62
2018-05-06T06:22:26.341Z,1020.68
2018-05-06T06:23:33.664Z,1020.68
2018-05-06T06:25:19.284Z,1020.64
2018-05-06T06:26:19.242Z,1020.61
2018-05-06T06:28:12.399Z,1020.62
2018-05-06T06:29:12.192Z,1020.63
2018-05-06T06:31:05.188Z,1020.61
2018-05-06T06:32:05.152Z,1020.66
2018-05-06T06:33:58.299Z,1020.63
2018-05-06T06:34:58.106Z,1020.63
2018-05-06T06:36:51.265Z,1020.71
2018-05-06T06:37:51.058Z,1020.65
2018-05-06T06:39:44.222Z,1020.66
2018-05-06T06:40:44.020Z,1020.63
2018-05-06T06:42:37.174Z,1020.69
2018-05-06T06:43:36.974Z,1020.66
2018-05-06T06:45:30.128Z,1020.68
2018-05-06T06:46:29.936Z,1020.67
2018-05-06T06:48:23.082Z,1020.74
2018-05-06T06:49:22.884Z,1020.71
2018-05-06T06:51:16.038Z,1020.70
2018-05-06T06:52:15.843Z,1020.71
2018-05-06T06:54:08.993Z,1020.73
2018-05-06T06:55:08.794Z,1020.73
2018-05-06T06:57:01.948Z,1020.79
2018-05-06T06:58:01.749Z,1020.83
2018-05-06T06:59:54.904Z,1020.86
2018-05-06T07:00:54.704Z,1020.84
2018-05-06T07:02:47.697Z,1020.87
2018-05-06T07:03:47.661Z,1020.91
2018-05-06T07:05:40.812Z,1020.89
2018-05-06T07:06:40.615Z,1020.89
2018-05-06T07:08:33.768Z,1020.92
2018-05-06T07:09:33.572Z,1020.87
2018-05-06T07:11:26.723Z,1020.90
2018-05-06T07:12:26.529Z,1020.90
2018-05-06T07:14:19.679Z,1020.87
2018-05-06T07:15:19.480Z,1020.87
2018-05-06T07:17:12.634Z,1020.87
2018-05-06T07:18:12.440Z,1020.85
2018-05-06T07:20:05.590Z,1020.85
2018-05-06T07:21:05.393Z,1020.87
2018-05-06T07:22:58.562Z,1020.82
2018-05-06T07:23:58.350Z,1020.86
2018-05-06T07:25:51.502Z,1020.84
2018-05-06T07:26:51.306Z,1020.82
2018-05-06T07:28:44.457Z,1020.89
2018-05-06T07:29:44.259Z,1020.94
2018-05-06T07:31:37.415Z,1020.92
2018-05-06T07:32:37.216Z,1020.87
2018-05-06T07:34:30.269Z,1020.94
2018-05-06T07:35:30.170Z,1020.89
2018-05-06T07:37:23.220Z,1020.87
2018-05-06T07:38:23.125Z,1020.90
2018-05-06T07:40:16.191Z,1020.85
2018-05-06T07:41:16.081Z,1020.90
2018-05-06T07:43:09.135Z,1020.89
2018-05-06T07:44:09.034Z,1020.92
2018-05-06T07:46:01.988Z,1020.99
2018-05-06T07:47:01.896Z,1020.97
2018-05-06T07:48:54.891Z,1021.00
2018-05-06T07:49:54.749Z,1021.03
2018-05-06T07:51:47.690Z,1021.02
2018-05-06T07:52:47.603Z,1021.03
2018-05-06T07:54:40.544Z,1021.03
2018-05-06T07:55:40.457Z,1021.04
2018-05-06T07:57:33.502Z,1021.01
2018-05-06T07:58:33.409Z,1020.92
2018-05-06T08:00:26.462Z,1020.92
2018-05-06T08:01:26.365Z,1020.94
2018-05-06T08:03:19.413Z,1020.90
2018-05-06T08:04:19.327Z,1020.89
2018-05-06T08:06:12.371Z,1020.93
2018-05-06T08:07:12.278Z,1020.90
2018-05-06T08:09:05.320Z,1020.91
2018-05-06T08:10:05.232Z,1020.94
2018-05-06T08:11:58.277Z,1020.92
2018-05-06T08:12:58.186Z,1020.88
2018-05-06T08:14:51.238Z,1020.92
2018-05-06T08:15:51.141Z,1020.94
2018-05-06T08:17:44.704Z,1020.94
2018-05-06T08:18:44.607Z,1020.89
2018-05-06T08:20:37.649Z,1020.92
2018-05-06T08:21:37.564Z,1020.91
2018-05-06T08:23:30.612Z,1020.93
2018-05-06T08:24:30.518Z,1020.94
2018-05-06T08:26:23.567Z,1020.94
2018-05-06T08:27:23.475Z,1020.88
2018-05-06T08:29:16.653Z,1020.89
2018-05-06T08:30:16.429Z,1020.92
2018-05-06T08:32:09.480Z,1020.91
2018-05-06T08:33:09.387Z,1020.89
2018-05-06T08:35:02.540Z,1020.92
2018-05-06T08:36:02.346Z,1020.96
2018-05-06T08:37:55.491Z,1020.97
2018-05-06T08:38:55.297Z,1020.95
2018-05-06T08:40:48.447Z,1020.97
2018-05-06T08:41:48.253Z,1020.99
2018-05-06T08:43:41.403Z,1020.94
2018-05-06T08:44:41.210Z,1021.00
2018-05-06T08:46:34.360Z,1020.99
2018-05-06T08:47:34.175Z,1021.04
2018-05-06T08:49:27.313Z,1021.05
2018-05-06T08:50:27.123Z,1021.08
2018-05-06T08:52:20.275Z,1021.07
2018-05-06T08:53:20.254Z,1021.10
2018-05-06T08:55:13.152Z,1021.13
2018-05-06T08:56:13.034Z,1021.15
2018-05-06T08:58:05.949Z,1021.19
2018-05-06T08:59:05.922Z,1021.20
2018-05-06T09:00:58.856Z,1021.28
2018-05-06T09:01:58.772Z,1021.23
2018-05-06T09:03:51.721Z,1021.25
2018-05-06T09:04:51.624Z,1021.26
2018-05-06T09:06:44.556Z,1021.25
2018-05-06T09:07:44.476Z,1021.21
2018-05-06T09:09:37.409Z,1021.21
2018-05-06T09:10:37.323Z,1021.23
2018-05-06T09:12:30.262Z,1021.23
2018-05-06T09:13:30.176Z,1021.20
2018-05-06T09:15:23.114Z,1021.17
2018-05-06T09:16:23.028Z,1021.17
2018-05-06T09:18:15.916Z,1021.11
2018-05-06T09:19:15.881Z,1021.15
2018-05-06T09:21:08.811Z,1021.10
2018-05-06T09:22:08.732Z,1021.09
2018-05-06T09:24:01.663Z,1021.06
2018-05-06T09:25:01.582Z,1021.08
2018-05-06T09:26:54.612Z,1020.99
2018-05-06T09:27:54.532Z,1021.05
2018-05-06T09:29:47.467Z,1021.00
2018-05-06T09:30:47.387Z,1020.98
2018-05-06T09:32:40.416Z,1020.93
2018-05-06T09:33:40.342Z,1020.92
2018-05-06T09:35:33.268Z,1020.87
2018-05-06T09:36:33.192Z,1020.93
2018-05-06T09:38:26.120Z,1020.91
2018-05-06T09:39:26.041Z,1020.90
2018-05-06T09:41:18.972Z,1020.92
2018-05-06T09:42:18.891Z,1020.91
2018-05-06T09:44:11.926Z,1020.92
2018-05-06T09:45:11.848Z,1020.97
2018-05-06T09:47:04.893Z,1020.92
2018-05-06T09:48:04.801Z,1020.88
2018-05-06T09:49:57.831Z,1020.88
2018-05-06T09:50:57.753Z,1020.81
2018-05-06T09:52:50.785Z,1020.82
2018-05-06T09:53:50.789Z,1020.80
2018-05-06T09:55:43.771Z,1020.83
2018-05-06T09:56:43.680Z,1020.83
2018-05-06T09:58:36.584Z,1020.75
2018-05-06T09:59:36.509Z,1020.77
2018-05-06T10:01:29.542Z,1020.71
2018-05-06T10:02:29.462Z,1020.68
2018-05-06T10:04:22.493Z,1020.70
2018-05-06T10:05:22.418Z,1020.71
2018-05-06T10:07:15.443Z,1020.71
2018-05-06T10:08:15.407Z,1020.69
2018-05-06T10:10:08.397Z,1020.65
2018-05-06T10:11:08.323Z,1020.61
2018-05-06T10:13:01.351Z,1020.62
2018-05-06T10:14:01.281Z,1020.64
2018-05-06T10:15:54.373Z,1020.59
2018-05-06T10:16:54.233Z,1020.63
2018-05-06T10:18:47.256Z,1020.54
2018-05-06T10:19:47.186Z,1020.51
2018-05-06T10:21:40.211Z,1020.48
2018-05-06T10:22:40.136Z,1020.49
2018-05-06T10:24:33.165Z,1020.44
2018-05-06T10:25:33.082Z,1020.47
2018-05-06T10:27:26.065Z,1020.45
2018-05-06T10:28:26.100Z,1020.41
2018-05-06T10:30:19.072Z,1020.42
2018-05-06T10:31:18.994Z,1020.39
2018-05-06T10:33:12.042Z,1020.35
2018-05-06T10:34:11.953Z,1020.37
2018-05-06T10:36:04.989Z,1020.32
2018-05-06T10:37:04.902Z,1020.36
2018-05-06T10:38:57.932Z,1020.34
2018-05-06T10:39:57.855Z,1020.31
2018-05-06T10:41:50.891Z,1020.30
2018-05-06T10:42:50.813Z,1020.26
2018-05-06T10:44:51.827Z,1020.27
2018-05-06T10:45:43.770Z,1020.25
2018-05-06T10:47:36.792Z,1020.23
2018-05-06T10:48:36.719Z,1020.25
2018-05-06T10:50:30.343Z,1020.21
2018-05-06T10:51:30.179Z,1020.21
2018-05-06T10:53:23.237Z,1020.27
2018-05-06T10:54:23.137Z,1020.24
2018-05-06T10:55:23.196Z,1020.32
2018-05-06T10:56:23.110Z,1020.26
2018-05-06T10:57:23.207Z,1020.28
2018-05-06T10:58:23.084Z,1020.29
2018-05-06T10:59:23.118Z,1020.31
2018-05-06T11:00:23.064Z,1020.23
2018-05-06T11:01:23.129Z,1020.26
2018-05-06T11:02:23.038Z,1020.28
2018-05-06T11:03:23.044Z,1020.28
2018-05-06T11:04:23.012Z,1020.28
2018-05-06T11:05:23.055Z,1020.29
2018-05-06T11:06:22.986Z,1020.25
2018-05-06T11:07:23.070Z,1020.29
2018-05-06T11:08:23.017Z,1020.30
2018-05-06T11:09:22.978Z,1020.27
2018-05-06T11:10:23.006Z,1020.23
2018-05-06T11:11:22.993Z,1020.20
2018-05-06T11:12:22.917Z,1020.23
2018-05-06T11:13:23.081Z,1020.22
2018-05-06T11:14:22.899Z,1020.21
2018-05-06T11:15:22.992Z,1020.23
2018-05-06T11:16:22.867Z,1020.22
2018-05-06T11:17:22.858Z,1020.21
2018-05-06T11:18:23.014Z,1020.19
2018-05-06T11:19:22.836Z,1020.18
2018-05-06T11:20:22.925Z,1020.14
2018-05-06T11:21:22.810Z,1020.16
2018-05-06T11:22:22.801Z,1020.11
2018-05-06T11:23:22.952Z,1020.10
2018-05-06T11:24:22.777Z,1020.09
2018-05-06T11:25:22.969Z,1020.10
2018-05-06T11:26:22.874Z,1020.10
2018-05-06T11:27:22.871Z,1020.04
2018-05-06T11:28:22.732Z,1019.98
2018-05-06T11:29:22.888Z,1020.02
2018-05-06T11:30:22.721Z,1019.98
2018-05-06T11:31:22.901Z,1019.96
2018-05-06T11:32:22.687Z,1019.99
2018-05-06T11:33:22.864Z,1019.95
2018-05-06T11:34:22.666Z,1019.94
2018-05-06T11:35:22.827Z,1019.96
2018-05-06T11:36:22.647Z,1019.97
2018-05-06T11:37:22.842Z,1019.96
2018-05-06T11:38:22.622Z,1019.95
2018-05-06T11:39:22.752Z,1019.94
2018-05-06T11:40:22.599Z,1019.91
2018-05-06T11:41:22.766Z,1019.87
2018-05-06T11:42:22.579Z,1019.86
2018-05-06T11:43:22.780Z,1019.80
2018-05-06T11:44:22.559Z,1019.86
2018-05-06T11:45:22.691Z,1019.84
2018-05-06T11:46:22.536Z,1019.88
2018-05-06T11:47:22.706Z,1019.89
2018-05-06T11:48:22.516Z,1019.91
2018-05-06T11:49:22.721Z,1019.91
2018-05-06T11:50:22.497Z,1019.91
2018-05-06T11:51:22.534Z,1019.87
2018-05-06T11:52:22.488Z,1019.88
2018-05-06T11:53:22.544Z,1019.88
2018-05-06T11:54:22.453Z,1019.88
2018-05-06T11:55:22.558Z,1019.87
2018-05-06T11:56:22.466Z,1019.90
2018-05-06T11:57:22.469Z,1019.92
2018-05-06T11:58:22.414Z,1019.88
2018-05-06T11:59:22.483Z,1019.85
2018-05-06T12:00:22.392Z,1019.81
2018-05-06T12:01:22.497Z,1019.79
2018-05-06T12:02:22.426Z,1019.83
2018-05-06T12:03:22.409Z,1019.77
2018-05-06T12:04:22.352Z,1019.79
2018-05-06T12:05:22.423Z,1019.76
2018-05-06T12:06:22.332Z,1019.73
2018-05-06T12:07:22.436Z,1019.74
2018-05-06T12:08:22.343Z,1019.73
2018-05-06T12:09:22.348Z,1019.73
2018-05-06T12:10:22.293Z,1019.70
2018-05-06T12:11:22.383Z,1019.77
2018-05-06T12:12:22.279Z,1019.73
2018-05-06T12:13:22.376Z,1019.73
2018-05-06T12:14:22.255Z,1019.69
2018-05-06T12:15:22.288Z,1019.70
2018-05-06T12:16:22.235Z,1019.67
2018-05-06T12:17:22.301Z,1019.64
2018-05-06T12:18:22.217Z,1019.66
2018-05-06T12:19:22.338Z,1019.65
2018-05-06T12:20:22.197Z,1019.63
2018-05-06T12:21:22.330Z,1019.57
2018-05-06T12:22:22.177Z,1019.58
2018-05-06T12:23:22.241Z,1019.56
2018-05-06T12:24:22.166Z,1019.60
2018-05-06T12:25:22.255Z,1019.58
2018-05-06T12:26:22.141Z,1019.57
2018-05-06T12:27:22.271Z,1019.54
2018-05-06T12:28:22.125Z,1019.53
2018-05-06T12:29:22.183Z,1019.46
2018-05-06T12:30:22.103Z,1019.42
2018-05-06T12:31:22.198Z,1019.42
2018-05-06T12:32:22.087Z,1019.41
2018-05-06T12:33:22.211Z,1019.41
2018-05-06T12:34:22.070Z,1019.37
2018-05-06T12:35:22.123Z,1019.38
2018-05-06T12:36:22.050Z,1019.33
2018-05-06T12:37:22.135Z,1019.33
2018-05-06T12:38:22.030Z,1019.35
2018-05-06T12:39:22.162Z,1019.29
2018-05-06T12:40:22.012Z,1019.30
2018-05-06T12:41:22.165Z,1019.29
2018-05-06T12:42:21.995Z,1019.33
2018-05-06T12:43:22.086Z,1019.28
2018-05-06T12:44:21.977Z,1019.31
2018-05-06T12:45:22.090Z,1019.30
2018-05-06T12:46:21.957Z,1019.25
2018-05-06T12:47:22.110Z,1019.27
2018-05-06T12:48:21.942Z,1019.22
2018-05-06T12:49:22.044Z,1019.22
2018-05-06T12:50:21.951Z,1019.23
2018-05-06T12:51:22.047Z,1019.20
2018-05-06T12:52:21.908Z,1019.18
2018-05-06T12:53:22.051Z,1019.13
2018-05-06T12:54:21.924Z,1019.12
2018-05-06T12:55:21.987Z,1019.10
2018-05-06T12:56:21.872Z,1019.10
2018-05-06T12:57:21.975Z,1019.10
2018-05-06T12:58:21.856Z,1019.06
2018-05-06T12:59:21.988Z,1019.08
2018-05-06T13:00:21.840Z,1019.06
2018-05-06T13:01:21.999Z,1019.03
2018-05-06T13:02:21.882Z,1019.03
2018-05-06T13:03:21.914Z,1019.02
2018-05-06T13:04:21.808Z,1019.00
2018-05-06T13:05:21.934Z,1019.01
2018-05-06T13:06:21.787Z,1018.97
2018-05-06T13:07:21.942Z,1018.99
2018-05-06T13:08:21.771Z,1018.96
2018-05-06T13:09:21.854Z,1018.96
2018-05-06T13:10:21.760Z,1018.97
2018-05-06T13:11:21.916Z,1018.91
2018-05-06T13:12:21.737Z,1018.93
2018-05-06T13:13:21.872Z,1018.90
2018-05-06T13:14:21.722Z,1018.89
2018-05-06T13:15:21.896Z,1018.86
2018-05-06T13:16:21.709Z,1018.85
2018-05-06T13:17:21.810Z,1018.85
2018-05-06T13:18:21.691Z,1018.85
2018-05-06T13:19:21.821Z,1018.83
2018-05-06T13:20:21.675Z,1018.81
2018-05-06T13:21:21.835Z,1018.79
2018-05-06T13:22:21.656Z,1018.80
2018-05-06T13:23:21.745Z,1018.80
2018-05-06T13:24:21.638Z,1018.79
2018-05-06T13:25:21.760Z,1018.75
2018-05-06T13:26:21.621Z,1018.79
2018-05-06T13:27:22.801Z,1018.80
2018-05-06T13:28:21.609Z,1018.76
2018-05-06T13:29:21.789Z,1018.78
2018-05-06T13:30:21.590Z,1018.79
2018-05-06T13:31:21.699Z,1018.74
2018-05-06T13:32:21.576Z,1018.76
2018-05-06T13:33:21.711Z,1018.76
2018-05-06T13:34:21.560Z,1018.71
2018-05-06T13:35:21.730Z,1018.75
2018-05-06T13:36:21.549Z,1018.71
2018-05-06T13:37:21.743Z,1018.71
2018-05-06T13:38:21.525Z,1018.73
2018-05-06T13:39:21.653Z,1018.71
2018-05-06T13:40:21.514Z,1018.72
2018-05-06T13:41:21.666Z,1018.71
2018-05-06T13:42:21.498Z,1018.68
2018-05-06T13:43:21.681Z,1018.68
2018-05-06T13:44:21.483Z,1018.67
2018-05-06T13:45:21.593Z,1018.68
2018-05-06T13:46:21.468Z,1018.64
2018-05-06T13:47:21.607Z,1018.59
2018-05-06T13:48:21.452Z,1018.58
2018-05-06T13:49:21.621Z,1018.59
2018-05-06T13:50:21.435Z,1018.58
2018-05-06T13:51:21.635Z,1018.54
2018-05-06T13:52:21.418Z,1018.57
2018-05-06T13:53:21.546Z,1018.55
2018-05-06T13:54:21.406Z,1018.53
2018-05-06T13:55:21.560Z,1018.52
2018-05-06T13:56:21.388Z,1018.49
2018-05-06T13:57:21.575Z,1018.46
2018-05-06T13:58:21.376Z,1018.51
2018-05-06T13:59:21.384Z,1018.51
2018-05-06T14:00:21.357Z,1018.49
2018-05-06T14:01:21.440Z,1018.48
2018-05-06T14:02:21.344Z,1018.44
2018-05-06T14:03:21.410Z,1018.43
2018-05-06T14:04:21.325Z,1018.40
2018-05-06T14:05:21.426Z,1018.36
2018-05-06T14:06:21.307Z,1018.41
2018-05-06T14:07:21.336Z,1018.35
2018-05-06T14:08:21.293Z,1018.38
2018-05-06T14:09:21.358Z,1018.36
2018-05-06T14:10:21.276Z,1018.34
2018-05-06T14:11:21.373Z,1018.34
2018-05-06T14:12:21.265Z,1018.32
2018-05-06T14:13:21.384Z,1018.32
2018-05-06T14:14:21.244Z,1018.32
2018-05-06T14:15:21.294Z,1018.30